createdAt,value
2023-02-18T00:01:42.754Z,102153.13
2023-02-18T00:04:11.229Z,102152.25
2023-02-18T00:06:39.495Z,102154.91
2023-02-18T00:09:09.354Z,102148.78
2023-02-18T00:11:38.920Z,102146.19
2023-02-18T00:14:11.595Z,102149.69
2023-02-18T00:16:40.192Z,102152.38
2023-02-18T00:19:12.389Z,102141.81
2023-02-18T00:21:41.025Z,102145.38
2023-02-18T00:24:11.583Z,102136.53
2023-02-18T00:26:39.726Z,102141.88
2023-02-18T00:29:08.302Z,102140.13
2023-02-18T00:31:37.768Z,102135.72
2023-02-18T00:34:06.555Z,102134.03
2023-02-18T00:36:38.342Z,102143.75
2023-02-18T00:39:09.283Z,102137.59
2023-02-18T00:42:02.145Z,102148.25
2023-02-18T00:44:30.852Z,102145.59
2023-02-18T00:46:59.083Z,102154.50
2023-02-18T00:49:27.625Z,102144.81
2023-02-18T00:51:55.854Z,102144.81
2023-02-18T00:54:24.387Z,102139.53
2023-02-18T00:56:52.489Z,102141.31
2023-02-18T00:59:20.956Z,102130.69
2023-02-18T01:01:49.156Z,102131.59
2023-02-18T01:04:17.858Z,102137.81
2023-02-18T01:06:45.968Z,102136.97
2023-02-18T01:09:15.109Z,102136.06
2023-02-18T01:11:43.321Z,102139.69
2023-02-18T01:14:11.694Z,102141.47
2023-02-18T01:16:39.807Z,102140.63
2023-02-18T01:19:10.421Z,102134.44
2023-02-18T01:21:39.797Z,102134.44
2023-02-18T01:24:08.241Z,102130.91
2023-02-18T01:26:36.826Z,102125.66
2023-02-18T01:29:05.268Z,102130.03
2023-02-18T01:31:33.567Z,102134.50
2023-02-18T01:34:02.138Z,102120.34
2023-02-18T01:36:30.642Z,102122.09
2023-02-18T01:38:59.146Z,102115.09
2023-02-18T01:41:27.454Z,102119.53
2023-02-18T01:44:24.673Z,102118.66
2023-02-18T01:46:53.889Z,102113.34
2023-02-18T01:49:29.483Z,102120.44
2023-02-18T01:52:05.203Z,102116.91
2023-02-18T01:54:39.908Z,102104.53
2023-02-18T01:57:12.250Z,102110.81
2023-02-18T01:59:45.134Z,102118.78
2023-02-18T02:02:17.340Z,102121.47
2023-02-18T02:04:46.152Z,102112.63
2023-02-18T02:07:14.891Z,102110.00
2023-02-18T02:09:43.730Z,102115.31
2023-02-18T02:12:36.660Z,102110.94
2023-02-18T02:15:06.798Z,102103.00
2023-02-18T02:17:59.571Z,102108.31
2023-02-18T02:20:58.572Z,102111.84
2023-02-18T02:23:42.103Z,102126.03
2023-02-18T02:26:45.496Z,102109.34
2023-02-18T02:29:28.613Z,102104.94
2023-02-18T02:32:20.781Z,102119.97
2023-02-18T02:34:51.707Z,102107.56
2023-02-18T02:37:38.513Z,102103.16
2023-02-18T02:40:16.961Z,102099.66
2023-02-18T02:42:53.586Z,102095.25
2023-02-18T02:45:58.722Z,102093.50
2023-02-18T02:48:45.636Z,102093.53
2023-02-18T02:51:16.137Z,102080.31
2023-02-18T02:53:45.086Z,102080.25
2023-02-18T02:56:18.544Z,102073.19
2023-02-18T02:58:55.086Z,102071.44
2023-02-18T03:01:41.115Z,102082.91
2023-02-18T03:04:09.454Z,102083.81
2023-02-18T03:07:06.846Z,102080.31
2023-02-18T03:09:42.449Z,102074.09
2023-02-18T03:12:12.903Z,102073.19
2023-02-18T03:15:05.027Z,102064.38
2023-02-18T03:17:52.310Z,102063.50
2023-02-18T03:20:37.112Z,102064.44
2023-02-18T03:23:08.824Z,102067.94
2023-02-18T03:25:39.386Z,102064.44
2023-02-18T03:28:18.283Z,102067.97
2023-02-18T03:30:57.714Z,102075.06
2023-02-18T03:33:38.342Z,102071.53
2023-02-18T03:36:07.842Z,102072.41
2023-02-18T03:38:46.439Z,102071.53
2023-02-18T03:41:15.420Z,102065.38
2023-02-18T03:43:54.124Z,102060.97
2023-02-18T03:46:22.745Z,102065.44
2023-02-18T03:48:50.946Z,102066.31
2023-02-18T03:51:20.058Z,102073.44
2023-02-18T03:53:48.317Z,102068.16
2023-02-18T03:56:17.387Z,102076.09
2023-02-18T03:58:45.786Z,102069.91
2023-02-18T04:01:14.604Z,102077.00
2023-02-18T04:03:42.703Z,102065.53
2023-02-18T04:06:11.491Z,102069.97
2023-02-18T04:08:39.771Z,102072.63
2023-02-18T04:11:08.589Z,102068.28
2023-02-18T04:13:36.865Z,102075.28
2023-02-18T04:16:05.959Z,102069.16
2023-02-18T04:18:34.411Z,102074.47
2023-02-18T04:21:03.251Z,102078.03
2023-02-18T04:23:31.403Z,102073.63
2023-02-18T04:26:00.022Z,102078.03
2023-02-18T04:28:28.270Z,102078.06
2023-02-18T04:30:56.745Z,102086.91
2023-02-18T04:33:24.899Z,102094.03
2023-02-18T04:35:53.349Z,102087.81
2023-02-18T04:38:21.623Z,102088.75
2023-02-18T04:40:50.241Z,102085.19
2023-02-18T04:43:18.475Z,102093.22
2023-02-18T04:45:47.190Z,102089.66
2023-02-18T04:48:15.341Z,102089.69
2023-02-18T04:50:45.170Z,102087.91
2023-02-18T04:53:13.356Z,102087.94
2023-02-18T04:55:41.896Z,102086.19
2023-02-18T04:58:11.051Z,102087.94
2023-02-18T05:00:41.221Z,102095.06
2023-02-18T05:03:09.609Z,102095.94
2023-02-18T05:05:38.585Z,102102.19
2023-02-18T05:08:06.816Z,102102.19
2023-02-18T05:10:35.303Z,102100.34
2023-02-18T05:13:03.478Z,102100.31
2023-02-18T05:15:32.108Z,102106.47
2023-02-18T05:18:00.311Z,102090.50
2023-02-18T05:20:29.078Z,102099.19
2023-02-18T05:22:57.215Z,102095.53
2023-02-18T05:25:25.978Z,102096.34
2023-02-18T05:27:54.143Z,102093.53
2023-02-18T05:30:22.721Z,102089.81
2023-02-18T05:32:50.891Z,102095.03
2023-02-18T05:35:19.338Z,102102.00
2023-02-18T05:37:47.487Z,102100.91
2023-02-18T05:40:16.170Z,102094.56
2023-02-18T05:42:44.319Z,102100.59
2023-02-18T05:45:12.735Z,102103.97
2023-02-18T05:47:40.956Z,102103.88
2023-02-18T05:50:09.944Z,102093.19
2023-02-18T05:52:38.134Z,102096.63
2023-02-18T05:55:06.906Z,102104.56
2023-02-18T05:57:35.137Z,102102.69
2023-02-18T06:00:05.626Z,102120.34
2023-02-18T06:02:33.814Z,102112.38
2023-02-18T06:05:02.536Z,102117.78
2023-02-18T06:07:30.661Z,102121.34
2023-02-18T06:09:59.074Z,102120.50
2023-02-18T06:12:27.227Z,102118.75
2023-02-18T06:14:55.645Z,102125.06
2023-02-18T06:17:23.823Z,102123.19
2023-02-18T06:19:52.336Z,102119.66
2023-02-18T06:22:20.497Z,102126.78
2023-02-18T06:24:49.051Z,102134.94
2023-02-18T06:27:17.197Z,102127.78
2023-02-18T06:29:45.598Z,102125.28
2023-02-18T06:32:13.742Z,102138.59
2023-02-18T06:34:42.315Z,102136.00
2023-02-18T06:37:10.502Z,102138.63
2023-02-18T06:39:40.256Z,102133.44
2023-02-18T06:42:08.433Z,102142.19
2023-02-18T06:44:38.031Z,102133.28
2023-02-18T06:47:06.412Z,102135.91
2023-02-18T06:49:36.639Z,102137.59
2023-02-18T06:52:05.500Z,102134.97
2023-02-18T06:54:34.437Z,102135.75
2023-02-18T06:57:02.631Z,102142.69
2023-02-18T06:59:31.089Z,102139.03
2023-02-18T07:01:59.553Z,102144.06
2023-02-18T07:04:28.113Z,102143.03
2023-02-18T07:06:56.298Z,102142.13
2023-02-18T07:09:24.746Z,102142.13
2023-02-18T07:11:52.860Z,102151.97
2023-02-18T07:14:21.496Z,102150.22
2023-02-18T07:16:49.678Z,102146.69
2023-02-18T07:19:18.252Z,102142.19
2023-02-18T07:21:46.488Z,102142.31
2023-02-18T07:24:14.916Z,102138.81
2023-02-18T07:26:43.086Z,102151.31
2023-02-18T07:29:11.588Z,102152.34
2023-02-18T07:31:39.931Z,102162.91
2023-02-18T07:34:08.931Z,102170.97
2023-02-18T07:36:37.101Z,102167.44
2023-02-18T07:39:05.846Z,102171.00
2023-02-18T07:41:34.628Z,102161.38
2023-02-18T07:44:03.177Z,102160.69
2023-02-18T07:46:31.321Z,102163.34
2023-02-18T07:48:59.935Z,102162.53
2023-02-18T07:51:28.275Z,102165.25
2023-02-18T07:53:56.769Z,102160.00
2023-02-18T07:56:24.849Z,102164.38
2023-02-18T07:58:53.566Z,102164.53
2023-02-18T08:01:21.646Z,102163.66
2023-02-18T08:03:50.457Z,102155.75
2023-02-18T08:06:33.987Z,102159.31
2023-02-18T08:09:02.660Z,102170.84
2023-02-18T08:11:31.444Z,102173.50
2023-02-18T08:13:59.976Z,102169.97
2023-02-18T08:16:28.449Z,102171.75
2023-02-18T08:18:57.522Z,102170.84
2023-02-18T08:21:26.361Z,102168.22
2023-02-18T08:23:55.096Z,102168.22
2023-02-18T08:26:23.149Z,102156.81
2023-02-18T08:28:51.694Z,102169.22
2023-02-18T08:31:25.781Z,102164.84
2023-02-18T08:33:55.348Z,102166.66
2023-02-18T08:36:23.905Z,102163.13
2023-02-18T08:38:52.375Z,102157.88
2023-02-18T08:41:20.993Z,102168.50
2023-02-18T08:43:50.021Z,102165.88
2023-02-18T08:46:33.233Z,102164.97
2023-02-18T08:49:05.968Z,102161.47
2023-02-18T08:51:34.871Z,102163.28
2023-02-18T08:54:03.499Z,102163.28
2023-02-18T08:56:32.775Z,102167.69
2023-02-18T08:59:01.263Z,102161.53
2023-02-18T09:01:29.477Z,102153.66
2023-02-18T09:03:58.328Z,102159.94
2023-02-18T09:06:26.538Z,102166.16
2023-02-18T09:08:55.066Z,102163.53
2023-02-18T09:11:23.185Z,102165.38
2023-02-18T09:13:51.781Z,102169.78
2023-02-18T09:16:19.993Z,102160.09
2023-02-18T09:18:52.124Z,102162.75
2023-02-18T09:21:20.931Z,102156.63
2023-02-18T09:23:50.357Z,102153.97
2023-02-18T09:26:23.168Z,102154.88
2023-02-18T09:28:52.780Z,102161.09
2023-02-18T09:31:23.692Z,102147.00
2023-02-18T09:34:03.238Z,102149.59
2023-02-18T09:36:31.641Z,102153.25
2023-02-18T09:39:00.917Z,102151.47
2023-02-18T09:41:35.329Z,102156.78
2023-02-18T09:44:21.927Z,102153.28
2023-02-18T09:46:55.003Z,102147.97
2023-02-18T09:49:26.352Z,102150.59
2023-02-18T09:51:56.044Z,102151.53
2023-02-18T09:54:24.516Z,102143.53
2023-02-18T09:56:53.708Z,102144.41
2023-02-18T09:59:24.234Z,102141.75
2023-02-18T10:01:54.714Z,102146.19
2023-02-18T10:04:34.758Z,102140.91
2023-02-18T10:07:03.994Z,102139.19
2023-02-18T10:09:35.739Z,102143.69
2023-02-18T10:12:21.499Z,102138.47
2023-02-18T10:14:52.468Z,102139.41
2023-02-18T10:17:23.605Z,102142.06
2023-02-18T10:19:54.271Z,102140.25
2023-02-18T10:22:25.013Z,102137.59
2023-02-18T10:24:57.331Z,102130.59
2023-02-18T10:27:33.371Z,102136.75
2023-02-18T10:30:25.102Z,102138.50
2023-02-18T10:33:18.464Z,102134.06
2023-02-18T10:36:09.765Z,102125.97
2023-02-18T10:38:44.641Z,102122.31
2023-02-18T10:41:15.951Z,102130.22
2023-02-18T10:43:57.233Z,102129.13
2023-02-18T10:46:40.857Z,102131.66
2023-02-18T10:49:27.314Z,102124.38
2023-02-18T10:51:57.394Z,102118.06
2023-02-18T10:54:27.411Z,102117.91
2023-02-18T10:57:00.644Z,102115.00
2023-02-18T10:59:34.601Z,102108.75
2023-02-18T11:02:12.241Z,102108.47
2023-02-18T11:04:43.290Z,102094.88
2023-02-18T11:07:17.238Z,102093.16
2023-02-18T11:09:51.106Z,102091.38
2023-02-18T11:12:54.592Z,102084.19
2023-02-18T11:15:25.196Z,102079.03
2023-02-18T11:18:15.779Z,102077.91
2023-02-18T11:20:57.972Z,102067.84
2023-02-18T11:23:26.800Z,102072.06
2023-02-18T11:25:59.127Z,102067.72
2023-02-18T11:28:33.707Z,102064.81
2023-02-18T11:31:03.012Z,102063.03
2023-02-18T11:33:33.211Z,102056.00
2023-02-18T11:36:15.558Z,102043.41
2023-02-18T11:39:07.988Z,102049.69
2023-02-18T11:41:44.702Z,102038.91
2023-02-18T11:44:28.507Z,102040.66
2023-02-18T11:47:20.333Z,102032.84
2023-02-18T11:50:02.673Z,102027.63
2023-02-18T11:52:36.540Z,102022.34
2023-02-18T11:55:07.707Z,102017.94
2023-02-18T11:57:39.306Z,102022.41
2023-02-18T12:00:24.440Z,102012.75
2023-02-18T12:02:54.628Z,102000.53
2023-02-18T12:05:25.938Z,102020.09
2023-02-18T12:08:01.929Z,102011.34
2023-02-18T12:10:35.533Z,102006.03
2023-02-18T12:13:27.898Z,102007.88
2023-02-18T12:16:26.968Z,102008.00
2023-02-18T12:19:07.455Z,101999.16
2023-02-18T12:22:25.446Z,101988.59
2023-02-18T12:25:14.251Z,101991.34
2023-02-18T12:28:13.555Z,101980.78
2023-02-18T12:30:58.645Z,101973.84
2023-02-18T12:33:41.119Z,101971.19
2023-02-18T12:36:14.689Z,101971.22
2023-02-18T12:39:12.256Z,101962.41
2023-02-18T12:42:25.458Z,101964.16
2023-02-18T12:45:35.648Z,101959.81
2023-02-18T12:48:09.416Z,101950.13
2023-02-18T12:50:46.105Z,101932.50
2023-02-18T12:53:55.278Z,101939.44
2023-02-18T12:56:54.948Z,101934.97
2023-02-18T12:59:49.656Z,101934.13
2023-02-18T13:02:39.654Z,101923.63
2023-02-18T13:05:19.130Z,101921.72
2023-02-18T13:08:19.043Z,101909.31
2023-02-18T13:10:47.260Z,101918.16
2023-02-18T13:13:19.264Z,101912.84
2023-02-18T13:16:06.854Z,101905.69
2023-02-18T13:18:39.113Z,101904.81
2023-02-18T13:21:09.934Z,101900.44
2023-02-18T13:23:43.849Z,101894.19
2023-02-18T13:26:14.314Z,101896.84
2023-02-18T13:29:07.844Z,101897.78
2023-02-18T13:31:47.853Z,101889.81
2023-02-18T13:34:34.769Z,101885.34
2023-02-18T13:37:31.737Z,101875.72
2023-02-18T13:40:01.859Z,101883.59
2023-02-18T13:42:30.045Z,101877.41
2023-02-18T13:44:58.544Z,101876.53
2023-02-18T13:47:46.321Z,101873.88
2023-02-18T13:50:25.995Z,101879.19
2023-02-18T13:53:09.505Z,101863.25
2023-02-18T13:56:16.850Z,101861.50
2023-02-18T13:59:00.514Z,101861.00
2023-02-18T14:01:48.863Z,101858.41
2023-02-18T14:04:44.784Z,101849.84
2023-02-18T14:07:19.142Z,101851.44
2023-02-18T14:09:47.517Z,101846.84
2023-02-18T14:12:31.012Z,101851.31
2023-02-18T14:14:59.332Z,101842.41
2023-02-18T14:17:33.564Z,101839.88
2023-02-18T14:20:01.686Z,101840.75
2023-02-18T14:22:45.960Z,101833.66
2023-02-18T14:25:39.074Z,101832.81
2023-02-18T14:28:36.668Z,101834.63
2023-02-18T14:31:48.428Z,101824.94
2023-02-18T14:34:20.145Z,101827.56
2023-02-18T14:37:06.295Z,101812.50
2023-02-18T14:40:06.744Z,101816.91
2023-02-18T14:42:44.240Z,101807.25
2023-02-18T14:45:15.814Z,101804.53
2023-02-18T14:47:52.202Z,101798.38
2023-02-18T14:50:21.453Z,101793.13
2023-02-18T14:52:58.505Z,101795.72
2023-02-18T14:55:31.028Z,101794.88
2023-02-18T14:58:42.154Z,101788.78
2023-02-18T15:01:18.439Z,101796.00
2023-02-18T15:03:48.999Z,101787.97
2023-02-18T15:06:32.549Z,101785.13
2023-02-18T15:09:02.326Z,101786.88
2023-02-18T15:11:41.245Z,101788.56
2023-02-18T15:14:18.936Z,101791.19
2023-02-18T15:16:48.820Z,101792.94
2023-02-18T15:19:19.898Z,101783.16
2023-02-18T15:21:50.801Z,101791.13
2023-02-18T15:24:27.962Z,101787.56
2023-02-18T15:27:00.456Z,101784.84
2023-02-18T15:29:32.679Z,101785.72
2023-02-18T15:32:01.931Z,101785.81
2023-02-18T15:34:30.721Z,101781.53
2023-02-18T15:37:01.091Z,101789.63
2023-02-18T15:39:29.784Z,101777.38
2023-02-18T15:42:28.631Z,101783.63
2023-02-18T15:45:06.115Z,101788.16
2023-02-18T15:47:34.632Z,101786.41
2023-02-18T15:50:04.003Z,101786.47
2023-02-18T15:52:35.026Z,101787.41
2023-02-18T15:55:26.550Z,101788.34
2023-02-18T15:57:55.286Z,101786.59
2023-02-18T16:00:30.086Z,101783.94
2023-02-18T16:03:15.146Z,101782.19
2023-02-18T16:05:43.451Z,101791.91
2023-02-18T16:08:18.194Z,101785.69
2023-02-18T16:11:10.819Z,101778.44
2023-02-18T16:13:46.665Z,101776.50
2023-02-18T16:16:25.098Z,101775.44
2023-02-18T16:18:54.079Z,101773.50
2023-02-18T16:21:39.076Z,101764.19
2023-02-18T16:24:29.388Z,101776.19
2023-02-18T16:26:58.426Z,101768.88
2023-02-18T16:29:40.453Z,101766.50
2023-02-18T16:32:09.121Z,101759.06
2023-02-18T16:34:37.798Z,101771.94
2023-02-18T16:37:24.599Z,101760.31
2023-02-18T16:39:55.482Z,101758.41
2023-02-18T16:42:24.456Z,101759.88
2023-02-18T16:44:53.078Z,101755.13
2023-02-18T16:47:21.685Z,101750.63
2023-02-18T16:49:51.662Z,101746.06
2023-02-18T16:52:20.056Z,101753.66
2023-02-18T16:54:50.424Z,101748.09
2023-02-18T16:57:18.730Z,101755.88
2023-02-18T16:59:47.586Z,101757.72
2023-02-18T17:02:22.715Z,101760.72
2023-02-18T17:04:57.459Z,101766.47
2023-02-18T17:07:28.321Z,101769.25
2023-02-18T17:09:56.918Z,101764.69
2023-02-18T17:12:25.816Z,101764.59
2023-02-18T17:14:54.520Z,101760.81
2023-02-18T17:17:23.795Z,101757.09
2023-02-18T17:19:52.388Z,101755.47
2023-02-18T17:22:20.565Z,101749.31
2023-02-18T17:24:49.060Z,101757.34
2023-02-18T17:27:17.250Z,101758.22
2023-02-18T17:29:45.820Z,101751.22
2023-02-18T17:32:14.461Z,101760.19
2023-02-18T17:34:43.086Z,101758.53
2023-02-18T17:37:14.381Z,101760.41
2023-02-18T17:39:42.926Z,101769.56
2023-02-18T17:42:12.491Z,101771.38
2023-02-18T17:44:41.513Z,101776.03
2023-02-18T17:47:09.731Z,101773.41
2023-02-18T17:49:38.289Z,101768.25
2023-02-18T17:52:06.754Z,101772.75
2023-02-18T17:54:35.224Z,101776.38
2023-02-18T17:57:03.582Z,101777.19
2023-02-18T17:59:32.127Z,101773.59
2023-02-18T18:02:00.383Z,101771.75
2023-02-18T18:04:29.290Z,101775.16
2023-02-18T18:06:57.745Z,101770.66
2023-02-18T18:09:26.431Z,101773.13
2023-02-18T18:11:54.650Z,101774.97
2023-02-18T18:14:23.360Z,101771.97
2023-02-18T18:16:51.589Z,101781.78
2023-02-18T18:19:20.134Z,101776.03
2023-02-18T18:21:49.121Z,101773.38
2023-02-18T18:24:17.749Z,101775.94
2023-02-18T18:26:45.960Z,101771.03
2023-02-18T18:29:14.391Z,101781.56
2023-02-18T18:31:42.811Z,101781.50
2023-02-18T18:34:11.353Z,101783.31
2023-02-18T18:36:39.539Z,101771.91
2023-02-18T18:39:08.761Z,101773.75
2023-02-18T18:41:36.920Z,101780.03
2023-02-18T18:44:05.616Z,101776.72
2023-02-18T18:46:33.868Z,101772.97
2023-02-18T18:49:02.532Z,101768.69
2023-02-18T18:51:31.940Z,101774.97
2023-02-18T18:54:00.546Z,101776.03
2023-02-18T18:56:28.885Z,101775.31
2023-02-18T18:58:57.531Z,101769.13
2023-02-18T19:01:27.851Z,101768.34
2023-02-18T19:03:56.522Z,101775.66
2023-02-18T19:06:24.740Z,101770.44
2023-02-18T19:08:53.643Z,101772.34
2023-02-18T19:11:21.739Z,101769.81
2023-02-18T19:13:50.113Z,101767.22
2023-02-18T19:16:37.766Z,101776.97
2023-02-18T19:19:06.209Z,101774.28
2023-02-18T19:21:34.427Z,101763.53
2023-02-18T19:24:02.924Z,101767.81
2023-02-18T19:26:31.425Z,101767.91
2023-02-18T19:29:00.341Z,101765.56
2023-02-18T19:31:28.869Z,101767.50
2023-02-18T19:33:57.420Z,101767.38
2023-02-18T19:36:25.646Z,101772.47
2023-02-18T19:38:54.550Z,101768.69
2023-02-18T19:41:22.820Z,101768.00
2023-02-18T19:43:51.299Z,101765.47
2023-02-18T19:46:19.556Z,101776.91
2023-02-18T19:48:50.572Z,101775.31
2023-02-18T19:51:20.868Z,101782.22
2023-02-18T19:53:49.757Z,101783.78
2023-02-18T19:56:18.089Z,101779.25
2023-02-18T19:58:46.730Z,101773.97
2023-02-18T20:01:16.891Z,101784.66
2023-02-18T20:03:45.605Z,101773.13
2023-02-18T20:06:19.724Z,101782.94
2023-02-18T20:08:48.446Z,101783.00
2023-02-18T20:11:16.978Z,101783.09
2023-02-18T20:13:47.727Z,101791.06
2023-02-18T20:16:15.935Z,101790.31
2023-02-18T20:18:44.497Z,101784.16
2023-02-18T20:21:13.164Z,101778.91
2023-02-18T20:23:41.928Z,101780.81
2023-02-18T20:26:11.551Z,101784.41
2023-02-18T20:28:39.999Z,101781.81
2023-02-18T20:31:11.608Z,101788.16
2023-02-18T20:33:42.372Z,101786.34
2023-02-18T20:36:11.309Z,101781.97
2023-02-18T20:38:39.798Z,101781.19
2023-02-18T20:41:14.702Z,101779.34
2023-02-18T20:59:14.912Z,101787.34
2023-02-18T21:01:44.427Z,101786.28
2023-02-18T21:04:14.406Z,101791.31
2023-02-18T21:06:45.589Z,101790.09
2023-02-18T21:09:15.894Z,101787.25
2023-02-18T21:11:45.049Z,101788.81
2023-02-18T21:14:13.359Z,101790.56
2023-02-18T21:16:42.110Z,101788.03
2023-02-18T21:19:16.246Z,101788.03
2023-02-18T21:21:45.622Z,101790.75
2023-02-18T21:24:13.922Z,101790.84
2023-02-18T21:26:42.962Z,101793.53
2023-02-18T21:29:11.211Z,101790.97
2023-02-18T21:31:41.498Z,101795.50
2023-02-18T21:34:14.496Z,101787.69
2023-02-18T21:36:43.931Z,101793.03
2023-02-18T21:39:12.283Z,101797.47
2023-02-18T21:41:41.452Z,101798.53
2023-02-18T21:44:10.162Z,101801.25
2023-02-18T21:46:39.685Z,101806.66
2023-02-18T21:49:11.031Z,101799.59
2023-02-18T21:51:57.329Z,101799.75
2023-02-18T21:54:27.403Z,101790.94
2023-02-18T21:56:56.576Z,101790.84
2023-02-18T21:59:27.214Z,101785.81
2023-02-18T22:01:56.374Z,101789.63
2023-02-18T22:04:25.622Z,101792.56
2023-02-18T22:06:54.242Z,101785.75
2023-02-18T22:09:22.870Z,101793.91
2023-02-18T22:11:51.675Z,101799.38
2023-02-18T22:14:20.525Z,101786.19
2023-02-18T22:16:49.261Z,101789.00
2023-02-18T22:19:17.546Z,101790.84
2023-02-18T22:21:46.375Z,101791.81
2023-02-18T22:24:16.746Z,101795.47
2023-02-18T22:26:46.940Z,101801.72
2023-02-18T22:29:16.855Z,101808.03
2023-02-18T22:31:47.526Z,101807.25
2023-02-18T22:34:16.609Z,101801.09
2023-02-18T22:36:45.452Z,101800.25
2023-02-18T22:39:15.392Z,101810.06
2023-02-18T22:41:43.981Z,101804.84
2023-02-18T22:44:14.391Z,101803.09
2023-02-18T22:46:43.668Z,101801.41
2023-02-18T22:49:12.688Z,101807.63
2023-02-18T22:51:43.700Z,101803.28
2023-02-18T22:54:16.473Z,101804.19
2023-02-18T22:56:46.798Z,101802.53
2023-02-18T22:59:17.838Z,101806.09
2023-02-18T23:01:53.268Z,101800.84
2023-02-18T23:04:22.019Z,101800.84
2023-02-18T23:06:51.197Z,101793.81
2023-02-18T23:09:22.631Z,101799.19
2023-02-18T23:11:53.028Z,101792.19
2023-02-18T23:14:22.075Z,101794.00
2023-02-18T23:17:17.966Z,101792.28
2023-02-18T23:19:54.182Z,101792.34
2023-02-18T23:22:32.628Z,101800.34
2023-02-18T23:25:01.931Z,101800.38
2023-02-18T23:27:30.754Z,101794.25
2023-02-18T23:29:59.150Z,101796.94
2023-02-18T23:32:29.074Z,101790.75
2023-02-18T23:34:57.281Z,101789.91
2023-02-18T23:37:44.542Z,101784.63
2023-02-18T23:40:14.981Z,101778.53
2023-02-18T23:42:43.647Z,101778.44
2023-02-18T23:45:11.857Z,101782.97
2023-02-18T23:47:40.390Z,101777.72
2023-02-18T23:50:08.903Z,101777.72
2023-02-18T23:52:37.552Z,101768.91
2023-02-18T23:55:06.152Z,101775.09
2023-02-18T23:57:34.691Z,101768.13
